Moncla, Louisiana
Current Conditions -  °F | °C
As of 11:53 AM on Friday 28 Nov 2014 (Local Time) from KESF Reporting Station
Clear Clear  
Wind Chill: 58°   Ceiling: Unl
Heat Index: 58°   Visibility: 10mi
Dew Point: 35°   Wind: 8mph
Humidity: 42%   Direction: 150°SSE
Pressure: 30.34"   Gusts: NA
Location:  31.175°N, 91.9985°W
Report Text: KESF 281753Z AUTO 15007KT 10SM CLR 14/02 A3034 RMK AO2 SLP272 I6000 T01440017 10144 21017 58026
Loading
Personal Weather Stations






























Interactive Weather Map New forecast layout! Learn more

10-Day Weather Forecast

Advertisements
Track Severe Weather on mobile